TAF PANC
AMD PANC 262057Z 2621/2724 02008KT P6SM SCT050 BKN140=
METAR PANC
WC PANC
WS PANC
WV PANC